createdAt,value
2022-10-26T00:00:31.057Z,99552.20
2022-10-26T00:01:33.031Z,99559.75
2022-10-26T00:02:35.029Z,99546.22
2022-10-26T00:03:38.176Z,99554.12
2022-10-26T00:04:40.501Z,99556.63
2022-10-26T00:05:43.099Z,99556.77
2022-10-26T00:06:45.369Z,99560.55
2022-10-26T00:07:47.755Z,99558.63
2022-10-26T00:08:50.135Z,99555.03
2022-10-26T00:09:51.908Z,99561.15
2022-10-26T00:10:56.742Z,99561.45
2022-10-26T00:11:58.997Z,99561.45
2022-10-26T00:13:01.823Z,99564.97
2022-10-26T00:14:04.716Z,99572.91
2022-10-26T00:15:07.683Z,99563.45
2022-10-26T00:16:16.395Z,99566.48
2022-10-26T00:17:18.239Z,99575.30
2022-10-26T00:18:20.542Z,99575.68
2022-10-26T00:19:22.541Z,99565.36
2022-10-26T00:20:24.560Z,99575.68
2022-10-26T00:21:27.104Z,99576.67
2022-10-26T00:22:29.076Z,99568.70
2022-10-26T00:23:31.642Z,99570.17
2022-10-26T00:24:33.567Z,99569.34
2022-10-26T00:25:35.428Z,99570.39
2022-10-26T00:26:38.166Z,99570.39
2022-10-26T00:27:41.390Z,99573.86
2022-10-26T00:28:43.328Z,99573.86
2022-10-26T00:29:46.217Z,99576.59
2022-10-26T00:30:48.333Z,99573.99
2022-10-26T00:31:50.465Z,99572.30
2022-10-26T00:32:52.563Z,99575.68
2022-10-26T00:33:55.579Z,99575.82
2022-10-26T00:35:06.061Z,99580.11
2022-10-26T00:36:01.635Z,99571.70
2022-10-26T00:37:03.534Z,99574.30
2022-10-26T00:38:05.915Z,99581.27
2022-10-26T00:39:11.348Z,99581.19
2022-10-26T00:40:14.150Z,99581.19
2022-10-26T00:41:18.664Z,99581.32
2022-10-26T00:42:22.159Z,99584.01
2022-10-26T00:43:30.426Z,99585.83
2022-10-26T00:44:51.247Z,99584.84
2022-10-26T00:45:56.557Z,99588.38
2022-10-26T00:46:58.623Z,99583.47
2022-10-26T00:48:06.933Z,99586.08
2022-10-26T00:50:25.681Z,99584.92
2022-10-26T00:51:36.890Z,99579.23
2022-10-26T00:52:39.339Z,99584.81
2022-10-26T00:53:42.046Z,99581.52
2022-10-26T00:54:44.542Z,99577.44
2022-10-26T00:55:50.471Z,99584.20
2022-10-26T00:56:54.507Z,99582.64
2022-10-26T00:57:57.471Z,99578.22
2022-10-26T00:59:03.098Z,99589.53
2022-10-26T01:00:07.337Z,99586.02
2022-10-26T01:01:09.622Z,99583.29
2022-10-26T01:02:12.801Z,99583.29
2022-10-26T01:03:16.423Z,99594.44
2022-10-26T01:04:19.340Z,99583.29
2022-10-26T01:05:22.708Z,99589.41
2022-10-26T01:06:25.158Z,99594.44
2022-10-26T01:07:27.372Z,99584.20
2022-10-26T01:08:29.824Z,99589.23
2022-10-26T01:09:33.337Z,99584.73
2022-10-26T01:10:38.197Z,99590.80
2022-10-26T01:11:40.135Z,99590.80
2022-10-26T01:12:42.781Z,99582.08
2022-10-26T01:13:47.222Z,99571.59
2022-10-26T01:14:50.620Z,99571.59
2022-10-26T01:16:20.525Z,99583.17
2022-10-26T01:17:29.072Z,99589.91
2022-10-26T01:18:34.647Z,99582.83
2022-10-26T01:20:15.414Z,99587.13
2022-10-26T01:21:23.784Z,99586.42
2022-10-26T01:22:45.738Z,99583.00
2022-10-26T01:24:06.175Z,99572.72
2022-10-26T01:25:11.738Z,99581.14
2022-10-26T01:26:36.265Z,99585.43
2022-10-26T01:27:40.649Z,99577.62
2022-10-26T01:29:10.169Z,99579.40
2022-10-26T01:30:25.713Z,99586.21
2022-10-26T01:31:31.184Z,99586.12
2022-10-26T01:32:57.393Z,99578.27
2022-10-26T01:34:14.765Z,99580.88
2022-10-26T01:35:29.530Z,99581.39
2022-10-26T01:36:44.216Z,99579.91
2022-10-26T01:38:04.680Z,99591.92
2022-10-26T01:39:10.279Z,99588.33
2022-10-26T01:40:21.877Z,99582.22
2022-10-26T01:42:48.130Z,99584.22
2022-10-26T01:43:54.156Z,99597.95
2022-10-26T01:45:02.475Z,99584.81
2022-10-26T01:46:07.261Z,99587.42
2022-10-26T01:47:12.809Z,99586.64
2022-10-26T01:48:18.887Z,99592.62
2022-10-26T01:49:27.538Z,99590.93
2022-10-26T01:50:31.496Z,99585.73
2022-10-26T01:51:34.979Z,99590.93
2022-10-26T01:52:36.935Z,99588.20
2022-10-26T01:53:48.908Z,99588.24
2022-10-26T01:54:50.845Z,99589.11
2022-10-26T01:55:54.520Z,99595.14
2022-10-26T01:57:00.211Z,99585.59
2022-10-26T01:58:05.709Z,99592.48
2022-10-26T01:59:11.245Z,99585.43
2022-10-26T02:00:14.183Z,99594.92
2022-10-26T02:01:38.036Z,99583.05
2022-10-26T02:03:00.769Z,99593.39
2022-10-26T02:04:21.098Z,99590.80
2022-10-26T02:05:44.965Z,99589.94
2022-10-26T02:07:12.064Z,99588.20
2022-10-26T02:08:17.680Z,99602.89
2022-10-26T02:09:44.464Z,99605.75
2022-10-26T02:10:56.705Z,99597.95
2022-10-26T02:12:02.331Z,99593.45
2022-10-26T02:13:20.262Z,99596.99
2022-10-26T02:14:37.899Z,99599.52
2022-10-26T02:15:55.619Z,99602.11
2022-10-26T02:17:04.309Z,99602.94
2022-10-26T02:19:35.394Z,99601.52
2022-10-26T02:20:41.004Z,99605.49
2022-10-26T02:21:49.306Z,99600.34
2022-10-26T02:22:54.255Z,99601.03
2022-10-26T02:23:58.834Z,99601.03
2022-10-26T02:25:04.521Z,99601.03
2022-10-26T02:26:10.315Z,99600.21
2022-10-26T02:27:16.586Z,99605.41
2022-10-26T02:28:22.226Z,99607.23
2022-10-26T02:29:28.248Z,99602.03
2022-10-26T02:30:34.031Z,99603.72
2022-10-26T02:31:38.235Z,99601.81
2022-10-26T02:32:43.750Z,99608.09
2022-10-26T02:34:55.142Z,99606.41
2022-10-26T02:36:00.439Z,99601.33
2022-10-26T02:37:04.892Z,99606.41
2022-10-26T02:38:13.009Z,99602.89
2022-10-26T02:39:18.639Z,99606.24
2022-10-26T02:40:24.357Z,99599.30
2022-10-26T02:41:29.685Z,99594.14
2022-10-26T02:42:32.829Z,99595.70
2022-10-26T02:43:38.356Z,99602.43
2022-10-26T02:44:51.232Z,99609.48
2022-10-26T02:45:59.349Z,99598.30
2022-10-26T02:47:02.215Z,99600.91
2022-10-26T02:48:05.612Z,99600.91
2022-10-26T02:49:08.015Z,99596.13
2022-10-26T02:50:11.202Z,99596.13
2022-10-26T02:51:19.538Z,99602.89
2022-10-26T02:52:31.179Z,99597.39
2022-10-26T02:54:03.375Z,99595.54
2022-10-26T02:55:18.511Z,99591.33
2022-10-26T02:56:27.286Z,99604.13
2022-10-26T02:57:34.112Z,99600.00
2022-10-26T02:58:39.770Z,99602.43
2022-10-26T02:59:45.057Z,99599.09
2022-10-26T03:00:47.710Z,99603.99
2022-10-26T03:01:51.561Z,99600.31
2022-10-26T03:02:57.229Z,99607.34
2022-10-26T03:04:00.072Z,99607.50
2022-10-26T03:05:28.174Z,99613.53
2022-10-26T03:06:30.936Z,99605.95
2022-10-26T03:07:33.048Z,99614.53
2022-10-26T03:08:35.049Z,99609.19
2022-10-26T03:09:37.246Z,99612.70
2022-10-26T03:10:44.890Z,99607.64
2022-10-26T03:11:47.190Z,99616.35
2022-10-26T03:12:49.367Z,99623.25
2022-10-26T03:13:51.430Z,99621.55
2022-10-26T03:14:53.298Z,99615.60
2022-10-26T03:15:55.965Z,99612.84
2022-10-26T03:16:58.190Z,99625.09
2022-10-26T03:18:00.627Z,99621.55
2022-10-26T03:19:02.450Z,99624.94
2022-10-26T03:20:05.587Z,99619.73
2022-10-26T03:21:07.492Z,99610.16
2022-10-26T03:22:09.294Z,99625.72
2022-10-26T03:23:11.086Z,99619.73
2022-10-26T03:24:13.015Z,99609.25
2022-10-26T03:25:14.795Z,99619.60
2022-10-26T03:26:16.799Z,99622.13
2022-10-26T03:27:20.673Z,99614.40
2022-10-26T03:28:22.663Z,99610.02
2022-10-26T03:29:24.438Z,99611.71
2022-10-26T03:30:27.057Z,99615.92
2022-10-26T03:31:28.763Z,99617.61
2022-10-26T03:32:30.595Z,99621.91
2022-10-26T03:33:34.549Z,99616.62
2022-10-26T03:34:36.382Z,99620.00
2022-10-26T03:35:38.127Z,99622.81
2022-10-26T03:36:39.896Z,99618.23
2022-10-26T03:37:41.563Z,99618.23
2022-10-26T03:38:43.348Z,99625.34
2022-10-26T03:39:45.118Z,99619.92
2022-10-26T03:40:46.963Z,99619.84
2022-10-26T03:41:48.768Z,99619.84
2022-10-26T03:42:51.795Z,99617.23
2022-10-26T03:43:55.308Z,99621.83
2022-10-26T03:44:57.070Z,99618.31
2022-10-26T03:45:59.943Z,99618.31
2022-10-26T03:47:01.767Z,99620.99
2022-10-26T03:48:04.285Z,99617.45
2022-10-26T03:49:09.377Z,99619.14
2022-10-26T03:50:13.953Z,99627.11
2022-10-26T03:51:15.886Z,99621.13
2022-10-26T03:52:17.669Z,99618.61
2022-10-26T03:53:19.289Z,99625.50
2022-10-26T03:54:21.027Z,99622.95
2022-10-26T03:55:22.663Z,99616.05
2022-10-26T03:56:24.814Z,99616.05
2022-10-26T03:57:26.516Z,99630.75
2022-10-26T03:58:28.167Z,99626.33
2022-10-26T03:59:29.831Z,99617.75
2022-10-26T04:00:31.770Z,99622.95
2022-10-26T04:01:34.077Z,99622.95
2022-10-26T04:02:36.468Z,99628.02
2022-10-26T04:03:38.737Z,99621.13
2022-10-26T04:04:41.063Z,99625.50
2022-10-26T04:05:42.951Z,99620.34
2022-10-26T04:07:58.014Z,99614.09
2022-10-26T04:09:00.067Z,99620.83
2022-10-26T04:10:03.165Z,99627.86
2022-10-26T04:11:05.278Z,99615.80
2022-10-26T04:12:07.316Z,99619.14
2022-10-26T04:13:12.090Z,99603.69
2022-10-26T04:14:14.095Z,99611.42
2022-10-26T04:15:17.850Z,99602.91
2022-10-26T04:16:20.869Z,99618.31
2022-10-26T04:17:23.428Z,99618.31
2022-10-26T04:18:25.252Z,99619.84
2022-10-26T04:19:26.934Z,99611.81
2022-10-26T04:20:30.897Z,99610.13
2022-10-26T04:21:32.896Z,99610.90
2022-10-26T04:22:35.285Z,99613.80
2022-10-26T04:23:37.213Z,99608.59
2022-10-26T04:24:38.850Z,99601.70
2022-10-26T04:25:42.062Z,99612.20
2022-10-26T04:26:44.218Z,99613.11
2022-10-26T04:27:45.997Z,99601.84
2022-10-26T04:28:48.018Z,99603.53
2022-10-26T04:29:49.692Z,99604.39
2022-10-26T04:30:51.787Z,99605.08
2022-10-26T04:31:53.766Z,99599.72
2022-10-26T04:32:55.798Z,99601.27
2022-10-26T04:33:57.733Z,99604.78
2022-10-26T04:34:59.397Z,99597.80
2022-10-26T04:36:01.661Z,99603.09
2022-10-26T04:37:03.620Z,99601.41
2022-10-26T04:38:06.793Z,99600.58
2022-10-26T04:39:08.748Z,99600.58
2022-10-26T04:40:11.711Z,99600.79
2022-10-26T04:41:13.603Z,99604.14
2022-10-26T04:42:15.274Z,99604.00
2022-10-26T04:43:17.041Z,99594.51
2022-10-26T04:44:18.689Z,99600.58
2022-10-26T04:45:21.635Z,99597.97
2022-10-26T04:46:23.675Z,99592.82
2022-10-26T04:47:26.397Z,99598.02
2022-10-26T04:48:28.186Z,99598.88
2022-10-26T04:49:30.015Z,99601.62
2022-10-26T04:50:32.798Z,99601.62
2022-10-26T04:51:35.289Z,99605.08
2022-10-26T04:52:37.626Z,99592.82
2022-10-26T04:53:39.879Z,99606.74
2022-10-26T04:54:41.600Z,99604.92
2022-10-26T04:55:43.387Z,99607.52
2022-10-26T04:57:47.828Z,99603.17
2022-10-26T04:58:54.338Z,99611.89
2022-10-26T04:59:56.194Z,99603.09
2022-10-26T05:00:58.192Z,99613.63
2022-10-26T05:02:00.222Z,99613.63
2022-10-26T05:03:04.090Z,99605.83
2022-10-26T05:04:06.092Z,99598.02
2022-10-26T05:05:11.257Z,99610.13
2022-10-26T05:06:13.715Z,99604.78
2022-10-26T05:07:15.586Z,99599.58
2022-10-26T05:08:17.340Z,99609.82
2022-10-26T05:09:19.114Z,99609.82
2022-10-26T05:10:21.648Z,99613.34
2022-10-26T05:11:23.449Z,99616.88
2022-10-26T05:12:25.269Z,99606.47
2022-10-26T05:14:28.538Z,99611.67
2022-10-26T05:15:31.541Z,99613.50
2022-10-26T05:16:33.540Z,99601.41
2022-10-26T05:17:35.833Z,99611.67
2022-10-26T05:18:37.987Z,99612.50
2022-10-26T05:19:39.794Z,99601.27
2022-10-26T05:20:41.675Z,99609.82
2022-10-26T05:22:52.658Z,99615.72
2022-10-26T05:23:54.509Z,99621.78
2022-10-26T05:24:56.251Z,99621.92
2022-10-26T05:25:58.028Z,99614.97
2022-10-26T05:27:00.354Z,99614.11
2022-10-26T05:28:05.005Z,99622.53
2022-10-26T05:29:07.017Z,99623.48
2022-10-26T05:30:11.045Z,99621.92
2022-10-26T05:31:13.158Z,99617.58
2022-10-26T05:32:14.883Z,99609.82
2022-10-26T05:33:16.703Z,99614.89
2022-10-26T05:34:18.569Z,99626.83
2022-10-26T05:35:21.324Z,99620.63
2022-10-26T05:36:23.337Z,99623.17
2022-10-26T05:37:30.905Z,99620.48
2022-10-26T05:38:32.721Z,99622.09
2022-10-26T05:39:34.438Z,99626.69
2022-10-26T05:40:36.600Z,99628.37
2022-10-26T05:41:38.294Z,99625.00
2022-10-26T05:42:40.660Z,99635.11
2022-10-26T05:43:42.352Z,99636.02
2022-10-26T05:44:44.966Z,99636.10
2022-10-26T05:45:48.933Z,99627.38
2022-10-26T05:46:50.794Z,99625.52
2022-10-26T05:47:56.145Z,99629.91
2022-10-26T05:48:57.314Z,99615.97
2022-10-26T05:49:59.203Z,99622.70
2022-10-26T05:51:01.261Z,99636.63
2022-10-26T05:52:03.624Z,99633.58
2022-10-26T05:53:06.127Z,99638.62
2022-10-26T05:54:11.537Z,99628.37
2022-10-26T05:55:17.148Z,99629.91
2022-10-26T05:56:22.276Z,99636.80
2022-10-26T05:57:25.018Z,99632.42
2022-10-26T05:58:29.369Z,99622.01
2022-10-26T05:59:32.286Z,99633.20
2022-10-26T06:00:35.258Z,99643.61
2022-10-26T06:01:55.632Z,99636.63
2022-10-26T06:03:19.076Z,99638.19
2022-10-26T06:04:40.184Z,99629.59
2022-10-26T06:05:56.712Z,99648.04
2022-10-26T06:06:58.972Z,99641.00
2022-10-26T06:08:01.542Z,99628.81
2022-10-26T06:09:04.091Z,99644.22
2022-10-26T06:10:09.151Z,99636.49
2022-10-26T06:11:11.857Z,99636.36
2022-10-26T06:12:18.387Z,99645.60
2022-10-26T06:13:20.532Z,99642.91
2022-10-26T06:14:23.401Z,99641.86
2022-10-26T06:15:25.833Z,99634.97
2022-10-26T06:16:31.410Z,99635.87
2022-10-26T06:17:52.417Z,99633.88
2022-10-26T06:19:25.094Z,99654.58
2022-10-26T06:20:36.745Z,99637.81
2022-10-26T06:22:07.390Z,99642.64
2022-10-26T06:23:31.492Z,99646.16
2022-10-26T06:24:57.390Z,99654.80
2022-10-26T06:26:03.195Z,99672.89
2022-10-26T06:27:18.560Z,99658.41
2022-10-26T06:28:22.649Z,99646.98
2022-10-26T06:29:37.654Z,99651.19
2022-10-26T06:30:41.578Z,99655.49
2022-10-26T06:31:46.575Z,99646.16
2022-10-26T06:32:57.367Z,99676.71
2022-10-26T06:33:59.181Z,99667.30
2022-10-26T06:36:25.991Z,99663.99
2022-10-26T06:37:30.047Z,99656.71
2022-10-26T06:38:34.386Z,99661.92
2022-10-26T06:39:39.934Z,99664.91
2022-10-26T06:40:44.892Z,99664.91
2022-10-26T06:41:47.412Z,99666.69
2022-10-26T06:42:50.238Z,99665.52
2022-10-26T06:43:53.882Z,99673.10
2022-10-26T06:44:56.452Z,99673.10
2022-10-26T06:46:11.422Z,99666.89
2022-10-26T06:47:26.722Z,99676.17
2022-10-26T06:48:30.964Z,99674.66
2022-10-26T06:49:36.459Z,99673.56
2022-10-26T06:50:54.857Z,99667.53
2022-10-26T06:52:06.378Z,99674.34
2022-10-26T06:53:29.148Z,99676.03
2022-10-26T06:54:40.939Z,99664.44
2022-10-26T06:55:46.893Z,99667.73
2022-10-26T06:56:50.839Z,99676.00
2022-10-26T06:57:56.331Z,99666.67
2022-10-26T06:59:04.762Z,99670.34
2022-10-26T07:00:10.118Z,99661.92
2022-10-26T07:01:12.474Z,99665.61
2022-10-26T07:02:15.808Z,99671.51
2022-10-26T07:03:17.627Z,99677.41
2022-10-26T07:04:19.757Z,99676.41
2022-10-26T07:05:21.662Z,99672.20
2022-10-26T07:06:23.979Z,99678.16
2022-10-26T07:07:30.813Z,99687.14
2022-10-26T07:08:32.764Z,99684.77
2022-10-26T07:09:34.550Z,99680.23
2022-10-26T07:10:36.543Z,99681.38
2022-10-26T07:11:38.257Z,99681.84
2022-10-26T07:12:41.267Z,99693.95
2022-10-26T07:13:44.111Z,99697.70
2022-10-26T07:14:46.256Z,99674.48
2022-10-26T07:15:48.094Z,99683.16
2022-10-26T07:16:49.916Z,99680.61
2022-10-26T07:17:51.996Z,99687.51
2022-10-26T07:18:55.428Z,99692.94
2022-10-26T07:19:57.606Z,99688.42
2022-10-26T07:20:59.534Z,99677.09
2022-10-26T07:22:03.129Z,99688.97
2022-10-26T07:23:06.691Z,99698.25
2022-10-26T07:24:09.145Z,99692.73
2022-10-26T07:25:12.310Z,99694.70
2022-10-26T07:26:14.960Z,99701.01
2022-10-26T07:27:18.622Z,99692.05
2022-10-26T07:28:20.423Z,99682.72
2022-10-26T07:29:24.909Z,99690.05
2022-10-26T07:30:28.912Z,99700.48
2022-10-26T07:31:31.006Z,99694.58
2022-10-26T07:32:32.862Z,99693.66
2022-10-26T07:33:36.964Z,99703.50
2022-10-26T07:34:38.694Z,99703.50
2022-10-26T07:35:40.691Z,99706.34
2022-10-26T07:36:44.916Z,99691.41
2022-10-26T07:37:46.849Z,99707.97
2022-10-26T07:38:53.781Z,99703.34
2022-10-26T07:39:56.678Z,99715.19
2022-10-26T07:40:58.766Z,99713.98
2022-10-26T07:42:00.666Z,99710.95
2022-10-26T07:43:02.939Z,99709.30
2022-10-26T07:44:05.125Z,99716.83
2022-10-26T07:45:08.430Z,99712.05
2022-10-26T07:46:11.064Z,99716.45
2022-10-26T07:47:13.165Z,99716.45
2022-10-26T07:48:14.858Z,99718.19
2022-10-26T07:49:19.510Z,99718.08
2022-10-26T07:50:22.876Z,99714.66
2022-10-26T07:51:24.799Z,99713.78
2022-10-26T07:52:26.982Z,99715.67
2022-10-26T07:53:29.142Z,99717.38
2022-10-26T07:54:31.962Z,99715.14
2022-10-26T07:55:33.674Z,99723.66
2022-10-26T07:56:35.851Z,99708.62
2022-10-26T07:57:38.041Z,99728.30
2022-10-26T07:58:40.119Z,99721.22
2022-10-26T07:59:42.870Z,99723.77
2022-10-26T08:00:44.866Z,99718.36
2022-10-26T08:01:47.526Z,99718.22
2022-10-26T08:02:49.529Z,99727.63
2022-10-26T08:03:55.333Z,99720.41
2022-10-26T08:04:57.159Z,99720.80
2022-10-26T08:05:59.984Z,99719.73
2022-10-26T08:07:01.934Z,99724.61
2022-10-26T08:08:04.196Z,99728.30
2022-10-26T08:09:06.608Z,99728.30
2022-10-26T08:10:10.514Z,99727.47
2022-10-26T08:11:12.647Z,99725.38
2022-10-26T08:12:15.035Z,99720.64
2022-10-26T08:13:16.748Z,99730.75
2022-10-26T08:14:19.053Z,99725.45
2022-10-26T08:15:21.470Z,99730.67
2022-10-26T08:16:23.908Z,99723.52
2022-10-26T08:17:25.818Z,99726.37
2022-10-26T08:18:28.771Z,99724.71
2022-10-26T08:19:30.596Z,99728.98
2022-10-26T08:20:33.020Z,99728.72
2022-10-26T08:21:39.793Z,99731.67
2022-10-26T08:22:38.930Z,99730.91
2022-10-26T08:23:41.194Z,99747.06
2022-10-26T08:24:44.105Z,99732.30
2022-10-26T08:25:45.962Z,99733.87
2022-10-26T08:26:48.371Z,99733.02
2022-10-26T08:27:50.579Z,99718.29
2022-10-26T08:28:53.106Z,99741.45
2022-10-26T08:29:54.987Z,99723.84
2022-10-26T08:30:57.118Z,99724.44
2022-10-26T08:31:58.951Z,99729.81
2022-10-26T08:33:02.955Z,99735.90
2022-10-26T08:34:05.557Z,99722.00
2022-10-26T08:35:09.148Z,99728.45
2022-10-26T08:36:12.441Z,99729.48
2022-10-26T08:37:14.748Z,99728.81
2022-10-26T08:38:16.454Z,99729.33
2022-10-26T08:39:18.377Z,99731.48
2022-10-26T08:40:30.345Z,99743.11
2022-10-26T08:41:45.095Z,99736.77
2022-10-26T08:42:50.997Z,99743.27
2022-10-26T08:43:57.707Z,99744.77
2022-10-26T08:45:12.863Z,99729.75
2022-10-26T08:46:31.966Z,99736.19
2022-10-26T08:47:37.939Z,99744.13
2022-10-26T08:48:43.453Z,99745.26
2022-10-26T08:50:04.117Z,99739.92
2022-10-26T08:51:09.931Z,99741.13
2022-10-26T08:52:15.425Z,99742.13
2022-10-26T08:53:23.867Z,99736.92
2022-10-26T08:54:38.614Z,99746.80
2022-10-26T08:55:50.334Z,99745.08
2022-10-26T08:56:56.021Z,99738.90
2022-10-26T08:58:00.552Z,99743.52
2022-10-26T08:59:06.418Z,99751.20
2022-10-26T09:00:21.306Z,99748.42
2022-10-26T09:01:23.493Z,99754.92
2022-10-26T09:02:26.731Z,99752.38
2022-10-26T09:03:29.555Z,99764.94
2022-10-26T09:04:32.042Z,99751.04
2022-10-26T09:05:37.697Z,99751.52
2022-10-26T09:06:58.449Z,99748.84
2022-10-26T09:08:37.777Z,99751.23
2022-10-26T09:09:53.062Z,99749.28
2022-10-26T09:11:07.894Z,99759.13
2022-10-26T09:12:16.392Z,99753.27
2022-10-26T09:13:27.853Z,99759.61
2022-10-26T09:15:05.408Z,99791.80
2022-10-26T09:16:13.991Z,99754.57
2022-10-26T09:17:36.113Z,99757.60
2022-10-26T13:41:31.691Z,99862.53
2022-10-26T13:42:40.262Z,99843.38
2022-10-26T13:43:43.321Z,99846.76
2022-10-26T13:44:52.149Z,99858.13
2022-10-26T13:45:58.685Z,99848.36
2022-10-26T13:47:10.892Z,99838.68
2022-10-26T13:48:16.407Z,99871.04
2022-10-26T13:49:21.935Z,99855.70
2022-10-26T13:50:32.142Z,99852.57
2022-10-26T13:51:48.036Z,99850.30
2022-10-26T13:52:53.661Z,99854.02
2022-10-26T13:53:59.668Z,99856.96
2022-10-26T13:55:05.276Z,99864.94
2022-10-26T13:56:24.422Z,99855.51
2022-10-26T13:57:35.706Z,99859.38
2022-10-26T13:58:44.189Z,99861.06
2022-10-26T13:59:47.000Z,99861.83
2022-10-26T14:02:18.310Z,99854.83
2022-10-26T14:03:20.431Z,99856.17
2022-10-26T14:04:27.288Z,99859.84
2022-10-26T14:05:32.071Z,99863.56
2022-10-26T14:06:39.059Z,99857.18
2022-10-26T14:07:45.061Z,99865.60
2022-10-26T14:08:50.004Z,99871.66
2022-10-26T14:09:54.914Z,99864.92
2022-10-26T14:10:58.758Z,99869.31
2022-10-26T14:12:01.556Z,99871.24
2022-10-26T14:13:16.131Z,99875.01
2022-10-26T14:14:25.787Z,99875.24
2022-10-26T14:15:31.351Z,99884.77
2022-10-26T14:16:33.901Z,99885.09
2022-10-26T14:17:35.895Z,99882.71
2022-10-26T14:18:38.252Z,99882.71
2022-10-26T14:19:41.304Z,99884.41
2022-10-26T14:21:04.308Z,99886.09
2022-10-26T14:22:07.189Z,99885.41
2022-10-26T14:23:26.935Z,99891.78
2022-10-26T14:24:46.855Z,99891.63
2022-10-26T14:25:42.621Z,99895.16
2022-10-26T14:26:45.978Z,99894.24
2022-10-26T14:27:48.878Z,99901.52
2022-10-26T14:28:55.225Z,99898.14
2022-10-26T14:30:21.205Z,99892.23
2022-10-26T14:31:25.622Z,99900.14
2022-10-26T14:32:32.184Z,99900.14
2022-10-26T14:33:40.617Z,99908.20
2022-10-26T14:34:43.705Z,99894.41
2022-10-26T14:35:47.203Z,99901.15
2022-10-26T14:38:09.286Z,99893.78
2022-10-26T14:39:18.384Z,99903.16
2022-10-26T14:40:23.591Z,99906.12
2022-10-26T14:41:26.752Z,99910.66
2022-10-26T14:42:40.698Z,99901.00
2022-10-26T14:43:44.441Z,99924.47
2022-10-26T14:44:46.533Z,99915.13
2022-10-26T14:45:51.184Z,99914.48
2022-10-26T14:46:53.785Z,99912.13
2022-10-26T14:47:56.601Z,99911.13
2022-10-26T14:49:00.391Z,99912.05
2022-10-26T14:50:03.901Z,99921.86
2022-10-26T14:51:18.074Z,99922.30
2022-10-26T14:52:24.109Z,99910.17
2022-10-26T14:53:36.853Z,99931.91
2022-10-26T14:54:41.052Z,99918.88
2022-10-26T14:55:46.824Z,99913.66
2022-10-26T14:56:50.832Z,99919.80
2022-10-26T14:57:56.447Z,99919.05
2022-10-26T14:58:58.902Z,99917.19
2022-10-26T15:00:04.092Z,99912.97
2022-10-26T15:01:25.292Z,99917.19
2022-10-26T15:02:30.053Z,99914.47
2022-10-26T15:03:33.361Z,99925.87
2022-10-26T15:04:43.596Z,99922.34
2022-10-26T15:05:47.088Z,99927.52
2022-10-26T15:06:49.154Z,99929.29
2022-10-26T15:07:52.854Z,99933.42
2022-10-26T15:08:57.359Z,99931.65
2022-10-26T15:09:59.768Z,99929.61
2022-10-26T15:11:06.899Z,99934.41
2022-10-26T15:12:21.647Z,99942.73
2022-10-26T15:13:30.049Z,99950.22
2022-10-26T15:14:33.826Z,99937.41
2022-10-26T15:15:39.523Z,99940.37
2022-10-26T15:16:41.953Z,99945.00
2022-10-26T15:17:54.008Z,99949.38
2022-10-26T15:19:11.053Z,99948.59
2022-10-26T15:20:19.941Z,99947.11
2022-10-26T15:21:31.591Z,99960.12
2022-10-26T15:22:34.002Z,99947.19
2022-10-26T15:23:39.210Z,99949.66
2022-10-26T15:24:42.060Z,99958.39
2022-10-26T15:26:02.046Z,99955.16
2022-10-26T15:27:07.644Z,99955.00
2022-10-26T15:28:13.147Z,99944.73
2022-10-26T15:29:37.059Z,99948.09
2022-10-26T15:30:39.643Z,99953.17
2022-10-26T15:31:42.099Z,99949.23
2022-10-26T15:32:46.749Z,99961.31
2022-10-26T15:33:55.707Z,99958.79
2022-10-26T15:35:16.072Z,99960.60
2022-10-26T15:36:20.677Z,99958.16
2022-10-26T15:37:22.583Z,99967.78
2022-10-26T15:38:28.635Z,99973.06
2022-10-26T15:39:29.748Z,99974.84
2022-10-26T15:40:32.410Z,99961.74
2022-10-26T15:41:42.997Z,99973.58
2022-10-26T15:42:48.551Z,99973.58
2022-10-26T15:43:52.526Z,99970.07
2022-10-26T15:44:55.775Z,99974.41
2022-10-26T15:45:58.306Z,99966.75
2022-10-26T15:47:05.063Z,99976.38
2022-10-26T15:48:13.158Z,99971.17
2022-10-26T15:49:21.595Z,99965.25
2022-10-26T15:50:26.507Z,99978.35
2022-10-26T15:51:28.772Z,99984.73
2022-10-26T15:52:31.342Z,99975.94
2022-10-26T15:53:35.255Z,99982.77
2022-10-26T15:54:37.454Z,99981.16
2022-10-26T15:55:41.562Z,99992.28
2022-10-26T15:56:45.881Z,99988.89
2022-10-26T15:59:02.380Z,99993.70
2022-10-26T16:00:07.493Z,99994.25
2022-10-26T16:01:20.013Z,99999.30
2022-10-26T16:02:22.646Z,99992.39
2022-10-26T16:03:26.140Z,100000.20
2022-10-26T16:04:29.764Z,99999.45
2022-10-26T16:06:37.843Z,99998.66
2022-10-26T16:07:56.852Z,100000.41
2022-10-26T16:09:04.916Z,100015.19
2022-10-26T16:10:11.055Z,100021.30
2022-10-26T16:11:13.008Z,100008.29
2022-10-26T16:12:17.106Z,100013.64
2022-10-26T16:13:18.877Z,100022.20
2022-10-26T16:14:20.512Z,100010.89
2022-10-26T16:15:24.527Z,100020.40
2022-10-26T16:16:26.547Z,100026.58
2022-10-26T16:17:31.658Z,100009.27
2022-10-26T16:18:36.720Z,100017.00
2022-10-26T16:19:38.541Z,100022.20
2022-10-26T16:20:43.955Z,100010.81
2022-10-26T16:21:46.975Z,100026.44
2022-10-26T16:22:50.929Z,100016.25
2022-10-26T16:23:56.621Z,100024.89
2022-10-26T16:24:58.625Z,100022.36
2022-10-26T16:26:02.318Z,100020.52
2022-10-26T16:27:05.029Z,100013.64
2022-10-26T16:28:07.920Z,100019.61
2022-10-26T16:29:09.891Z,100020.40
2022-10-26T16:30:13.099Z,100022.20
2022-10-26T16:31:20.080Z,100025.72
2022-10-26T16:32:23.493Z,100024.17
2022-10-26T16:33:26.035Z,100031.08
2022-10-26T16:34:27.885Z,100020.13
2022-10-26T16:35:39.263Z,100020.13
2022-10-26T16:36:41.875Z,100027.68
2022-10-26T16:37:45.037Z,100029.45
2022-10-26T16:38:47.837Z,100025.08
2022-10-26T16:39:55.810Z,100029.38
2022-10-26T16:41:07.291Z,100025.98
2022-10-26T16:42:09.288Z,100033.75
2022-10-26T16:43:11.490Z,100035.38
2022-10-26T16:44:15.395Z,100035.38
2022-10-26T16:45:20.654Z,100025.88
2022-10-26T16:46:24.133Z,100037.08
2022-10-26T16:47:26.842Z,100025.88
2022-10-26T16:48:29.149Z,100030.09
2022-10-26T16:49:31.143Z,100031.72
2022-10-26T16:50:36.298Z,100027.42
2022-10-26T16:51:37.430Z,100033.60
2022-10-26T16:52:53.492Z,100038.09
2022-10-26T16:53:58.963Z,100046.81
2022-10-26T16:55:02.274Z,100032.77
2022-10-26T16:56:11.192Z,100042.02
2022-10-26T16:57:15.742Z,100032.70
2022-10-26T16:58:18.144Z,100048.25
2022-10-26T16:59:19.942Z,100036.28
2022-10-26T17:00:22.766Z,100038.81
2022-10-26T17:01:25.003Z,100037.00
2022-10-26T17:02:27.142Z,100031.91
2022-10-26T17:03:30.283Z,100041.48
2022-10-26T17:04:32.336Z,100035.30
2022-10-26T17:05:34.057Z,100037.08
2022-10-26T17:06:36.276Z,100041.48
2022-10-26T17:07:38.149Z,100036.28
2022-10-26T17:08:41.455Z,100035.45
2022-10-26T17:09:43.412Z,100045.91
2022-10-26T17:10:45.822Z,100032.89
2022-10-26T17:11:47.996Z,100031.98
2022-10-26T17:12:50.202Z,100040.58
2022-10-26T17:13:54.569Z,100050.09
2022-10-26T17:14:56.400Z,100038.09
2022-10-26T17:16:07.177Z,100048.51
2022-10-26T17:17:09.578Z,100035.64
2022-10-26T17:18:11.683Z,100042.47
2022-10-26T17:19:13.940Z,100045.14
2022-10-26T17:20:16.452Z,100049.38
2022-10-26T17:21:21.675Z,100039.86
2022-10-26T17:22:24.289Z,100038.09
2022-10-26T17:23:27.443Z,100041.60
2022-10-26T17:24:29.762Z,100038.09
2022-10-26T17:25:35.604Z,100039.94